sensor_id;sensor_type;location;lat;lon;timestamp;temperature;humidity
19610;DHT22;9952;47.122;-1.638;2023-04-01T00:00:52;12.00;99.90
19610;DHT22;9952;47.122;-1.638;2023-04-01T00:05:33;11.90;99.90
19610;DHT22;9952;47.122;-1.638;2023-04-01T00:10:15;11.90;99.90
19610;DHT22;9952;47.122;-1.638;2023-04-01T00:14:56;12.00;99.90
19610;DHT22;9952;47.122;-1.638;2023-04-01T00:19:37;11.90;99.90
19610;DHT22;9952;47.122;-1.638;2023-04-01T00:24:17;11.90;99.90
19610;DHT22;9952;47.122;-1.638;2023-04-01T00:28:59;12.00;99.90
19610;DHT22;9952;47.122;-1.638;2023-04-01T00:33:41;12.00;99.90
19610;DHT22;9952;47.122;-1.638;2023-04-01T00:38:22;12.00;99.90
19610;DHT22;9952;47.122;-1.638;2023-04-01T00:43:03;12.00;99.90
19610;DHT22;9952;47.122;-1.638;2023-04-01T00:47:50;11.90;99.90
19610;DHT22;9952;47.122;-1.638;2023-04-01T00:52:30;12.00;99.90
19610;DHT22;9952;47.122;-1.638;2023-04-01T00:57:17;11.90;99.90
19610;DHT22;9952;47.122;-1.638;2023-04-01T01:02:01;11.90;99.90
19610;DHT22;9952;47.122;-1.638;2023-04-01T01:12:16;11.80;99.90
19610;DHT22;9952;47.122;-1.638;2023-04-01T01:17:06;11.80;99.90
19610;DHT22;9952;47.122;-1.638;2023-04-01T01:36:33;11.60;99.90
19610;DHT22;9952;47.122;-1.638;2023-04-01T01:41:18;11.60;99.90
19610;DHT22;9952;47.122;-1.638;2023-04-01T01:46:05;11.60;99.90
19610;DHT22;9952;47.122;-1.638;2023-04-01T01:50:48;11.70;99.90
19610;DHT22;9952;47.122;-1.638;2023-04-01T01:55:32;11.70;99.90
19610;DHT22;9952;47.122;-1.638;2023-04-01T02:00:14;11.70;99.90
19610;DHT22;9952;47.122;-1.638;2023-04-01T02:04:55;11.60;99.90
19610;DHT22;9952;47.122;-1.638;2023-04-01T02:09:36;11.60;99.90
19610;DHT22;9952;47.122;-1.638;2023-04-01T02:14:17;11.60;99.90
19610;DHT22;9952;47.122;-1.638;2023-04-01T02:19:01;11.60;99.90
19610;DHT22;9952;47.122;-1.638;2023-04-01T02:23:43;11.60;99.90
19610;DHT22;9952;47.122;-1.638;2023-04-01T02:28:26;11.60;99.90
19610;DHT22;9952;47.122;-1.638;2023-04-01T02:33:08;11.70;99.90
19610;DHT22;9952;47.122;-1.638;2023-04-01T02:37:50;11.70;99.90
19610;DHT22;9952;47.122;-1.638;2023-04-01T02:42:33;11.60;99.90
19610;DHT22;9952;47.122;-1.638;2023-04-01T02:47:14;11.60;99.90
19610;DHT22;9952;47.122;-1.638;2023-04-01T02:51:54;11.70;99.90
19610;DHT22;9952;47.122;-1.638;2023-04-01T02:56:35;11.70;99.90
19610;DHT22;9952;47.122;-1.638;2023-04-01T03:01:16;11.70;99.90
19610;DHT22;9952;47.122;-1.638;2023-04-01T03:05:57;11.60;99.90
19610;DHT22;9952;47.122;-1.638;2023-04-01T03:10:39;11.60;99.90
19610;DHT22;9952;47.122;-1.638;2023-04-01T03:15:20;11.60;99.90
19610;DHT22;9952;47.122;-1.638;2023-04-01T03:20:01;11.60;99.90
19610;DHT22;9952;47.122;-1.638;2023-04-01T03:24:43;11.60;99.90
19610;DHT22;9952;47.122;-1.638;2023-04-01T03:29:24;11.60;99.90
19610;DHT22;9952;47.122;-1.638;2023-04-01T03:34:05;11.70;99.90
19610;DHT22;9952;47.122;-1.638;2023-04-01T03:38:45;11.60;99.90
19610;DHT22;9952;47.122;-1.638;2023-04-01T03:43:26;11.50;99.90
19610;DHT22;9952;47.122;-1.638;2023-04-01T03:48:07;11.40;99.90
19610;DHT22;9952;47.122;-1.638;2023-04-01T03:52:48;11.40;99.90
19610;DHT22;9952;47.122;-1.638;2023-04-01T03:57:31;11.40;99.90
19610;DHT22;9952;47.122;-1.638;2023-04-01T04:02:12;11.50;99.90
19610;DHT22;9952;47.122;-1.638;2023-04-01T04:06:53;11.40;99.90
19610;DHT22;9952;47.122;-1.638;2023-04-01T04:11:34;11.40;99.90
19610;DHT22;9952;47.122;-1.638;2023-04-01T04:16:16;11.40;99.90
19610;DHT22;9952;47.122;-1.638;2023-04-01T04:20:57;11.60;99.90
19610;DHT22;9952;47.122;-1.638;2023-04-01T04:25:38;11.60;99.90
19610;DHT22;9952;47.122;-1.638;2023-04-01T04:30:19;11.50;99.90
19610;DHT22;9952;47.122;-1.638;2023-04-01T04:34:59;11.40;99.90
19610;DHT22;9952;47.122;-1.638;2023-04-01T04:39:40;11.30;99.90
19610;DHT22;9952;47.122;-1.638;2023-04-01T04:44:21;11.20;99.90
19610;DHT22;9952;47.122;-1.638;2023-04-01T04:49:02;11.10;99.90
19610;DHT22;9952;47.122;-1.638;2023-04-01T04:53:43;11.10;99.90
19610;DHT22;9952;47.122;-1.638;2023-04-01T04:58:24;11.10;99.90
19610;DHT22;9952;47.122;-1.638;2023-04-01T05:03:05;11.10;99.90
19610;DHT22;9952;47.122;-1.638;2023-04-01T05:07:46;11.10;99.90
19610;DHT22;9952;47.122;-1.638;2023-04-01T05:12:26;11.00;99.90
19610;DHT22;9952;47.122;-1.638;2023-04-01T05:17:11;11.00;99.90
19610;DHT22;9952;47.122;-1.638;2023-04-01T05:21:52;10.90;99.90
19610;DHT22;9952;47.122;-1.638;2023-04-01T05:26:33;10.90;99.90
19610;DHT22;9952;47.122;-1.638;2023-04-01T05:31:14;10.90;99.90
19610;DHT22;9952;47.122;-1.638;2023-04-01T05:35:55;10.80;99.90
19610;DHT22;9952;47.122;-1.638;2023-04-01T05:40:36;10.90;99.90
19610;DHT22;9952;47.122;-1.638;2023-04-01T05:45:16;10.90;99.90
19610;DHT22;9952;47.122;-1.638;2023-04-01T05:49:57;10.90;99.90
19610;DHT22;9952;47.122;-1.638;2023-04-01T05:54:38;10.90;99.90
19610;DHT22;9952;47.122;-1.638;2023-04-01T05:59:19;10.90;99.90
19610;DHT22;9952;47.122;-1.638;2023-04-01T06:03:59;11.00;99.90
19610;DHT22;9952;47.122;-1.638;2023-04-01T06:08:40;11.00;99.90
19610;DHT22;9952;47.122;-1.638;2023-04-01T06:24:07;11.00;99.90
19610;DHT22;9952;47.122;-1.638;2023-04-01T06:29:01;11.10;99.90
19610;DHT22;9952;47.122;-1.638;2023-04-01T06:34:03;11.10;99.90
19610;DHT22;9952;47.122;-1.638;2023-04-01T06:39:05;11.30;99.90
19610;DHT22;9952;47.122;-1.638;2023-04-01T06:43:57;11.80;99.90
19610;DHT22;9952;47.122;-1.638;2023-04-01T06:49:21;12.30;99.90
19610;DHT22;9952;47.122;-1.638;2023-04-01T06:54:13;12.80;99.90
19610;DHT22;9952;47.122;-1.638;2023-04-01T06:59:04;13.00;99.90
19610;DHT22;9952;47.122;-1.638;2023-04-01T07:04:06;13.40;99.90
19610;DHT22;9952;47.122;-1.638;2023-04-01T07:08:51;13.40;99.90
19610;DHT22;9952;47.122;-1.638;2023-04-01T07:13:45;13.10;99.90
19610;DHT22;9952;47.122;-1.638;2023-04-01T07:18:34;12.90;99.90
19610;DHT22;9952;47.122;-1.638;2023-04-01T07:23:23;12.60;99.90
19610;DHT22;9952;47.122;-1.638;2023-04-01T07:28:11;12.40;99.90
19610;DHT22;9952;47.122;-1.638;2023-04-01T07:37:55;12.60;99.90
19610;DHT22;9952;47.122;-1.638;2023-04-01T07:48:22;13.20;99.90
19610;DHT22;9952;47.122;-1.638;2023-04-01T07:58:24;13.50;99.90
19610;DHT22;9952;47.122;-1.638;2023-04-01T08:13:42;13.80;99.90
19610;DHT22;9952;47.122;-1.638;2023-04-01T08:18:34;14.10;99.90
19610;DHT22;9952;47.122;-1.638;2023-04-01T08:28:18;14.10;99.90
19610;DHT22;9952;47.122;-1.638;2023-04-01T08:33:17;14.00;99.90
19610;DHT22;9952;47.122;-1.638;2023-04-01T08:38:23;13.90;99.90
19610;DHT22;9952;47.122;-1.638;2023-04-01T08:58:42;11.80;99.90
19610;DHT22;9952;47.122;-1.638;2023-04-01T09:03:52;11.20;99.90
19610;DHT22;9952;47.122;-1.638;2023-04-01T09:13:56;10.50;99.90
19610;DHT22;9952;47.122;-1.638;2023-04-01T09:23:57;10.40;99.90
19610;DHT22;9952;47.122;-1.638;2023-04-01T09:29:03;10.20;99.90
19610;DHT22;9952;47.122;-1.638;2023-04-01T09:38:56;10.30;99.90
19610;DHT22;9952;47.122;-1.638;2023-04-01T09:49:13;10.50;99.90
19610;DHT22;9952;47.122;-1.638;2023-04-01T10:24:04;10.80;99.90
19610;DHT22;9952;47.122;-1.638;2023-04-01T10:29:13;10.50;99.90
19610;DHT22;9952;47.122;-1.638;2023-04-01T10:34:42;10.40;99.90
19610;DHT22;9952;47.122;-1.638;2023-04-01T11:04:53;10.20;99.90
19610;DHT22;9952;47.122;-1.638;2023-04-01T11:25:36;11.10;99.90
19610;DHT22;9952;47.122;-1.638;2023-04-01T11:40:23;11.30;99.90
19610;DHT22;9952;47.122;-1.638;2023-04-01T11:45:38;11.40;99.90
19610;DHT22;9952;47.122;-1.638;2023-04-01T11:50:57;11.40;99.90
19610;DHT22;9952;47.122;-1.638;2023-04-01T12:15:15;11.80;99.90
19610;DHT22;9952;47.122;-1.638;2023-04-01T12:20:12;11.90;99.90
19610;DHT22;9952;47.122;-1.638;2023-04-01T12:30:30;12.40;99.90
19610;DHT22;9952;47.122;-1.638;2023-04-01T12:35:23;12.60;99.90
19610;DHT22;9952;47.122;-1.638;2023-04-01T12:45:23;12.70;99.90
19610;DHT22;9952;47.122;-1.638;2023-04-01T12:55:41;12.90;99.90
19610;DHT22;9952;47.122;-1.638;2023-04-01T13:05:47;12.90;99.90
19610;DHT22;9952;47.122;-1.638;2023-04-01T13:26:00;13.50;99.90
19610;DHT22;9952;47.122;-1.638;2023-04-01T13:31:07;13.60;99.90
19610;DHT22;9952;47.122;-1.638;2023-04-01T13:41:06;13.50;99.90
19610;DHT22;9952;47.122;-1.638;2023-04-01T13:50:59;13.70;99.90
19610;DHT22;9952;47.122;-1.638;2023-04-01T14:00:46;12.40;99.90
19610;DHT22;9952;47.122;-1.638;2023-04-01T14:11:07;13.00;99.90
19610;DHT22;9952;47.122;-1.638;2023-04-01T14:16:04;13.60;99.90
19610;DHT22;9952;47.122;-1.638;2023-04-01T14:51:37;14.30;99.90
19610;DHT22;9952;47.122;-1.638;2023-04-01T14:56:35;14.20;99.90
19610;DHT22;9952;47.122;-1.638;2023-04-01T15:11:50;14.20;99.90
19610;DHT22;9952;47.122;-1.638;2023-04-01T15:16:47;14.30;99.90
19610;DHT22;9952;47.122;-1.638;2023-04-01T15:36:32;14.20;99.90
19610;DHT22;9952;47.122;-1.638;2023-04-01T15:46:30;14.20;99.90
19610;DHT22;9952;47.122;-1.638;2023-04-01T16:35:46;14.40;99.90
19610;DHT22;9952;47.122;-1.638;2023-04-01T16:50:58;14.40;99.90
19610;DHT22;9952;47.122;-1.638;2023-04-01T16:55:55;14.30;99.90
19610;DHT22;9952;47.122;-1.638;2023-04-01T17:00:48;14.40;99.90
19610;DHT22;9952;47.122;-1.638;2023-04-01T17:06:00;14.20;99.90
19610;DHT22;9952;47.122;-1.638;2023-04-01T17:10:51;14.10;99.90
19610;DHT22;9952;47.122;-1.638;2023-04-01T17:15:56;14.00;99.90
19610;DHT22;9952;47.122;-1.638;2023-04-01T17:21:00;14.00;99.90
19610;DHT22;9952;47.122;-1.638;2023-04-01T17:42:42;13.60;99.90
19610;DHT22;9952;47.122;-1.638;2023-04-01T17:47:07;13.50;99.90
19610;DHT22;9952;47.122;-1.638;2023-04-01T17:52:00;13.30;99.90
19610;DHT22;9952;47.122;-1.638;2023-04-01T17:57:09;13.20;99.90
19610;DHT22;9952;47.122;-1.638;2023-04-01T18:02:52;13.00;99.90
19610;DHT22;9952;47.122;-1.638;2023-04-01T18:07:51;12.90;99.90
19610;DHT22;9952;47.122;-1.638;2023-04-01T18:22:34;12.70;99.90
19610;DHT22;9952;47.122;-1.638;2023-04-01T18:27:44;12.60;99.90
19610;DHT22;9952;47.122;-1.638;2023-04-01T18:37:30;12.30;99.90
19610;DHT22;9952;47.122;-1.638;2023-04-01T18:42:27;12.20;99.90
19610;DHT22;9952;47.122;-1.638;2023-04-01T18:52:16;12.00;99.90
19610;DHT22;9952;47.122;-1.638;2023-04-01T18:57:15;11.80;99.90
19610;DHT22;9952;47.122;-1.638;2023-04-01T19:12:33;11.70;99.90
19610;DHT22;9952;47.122;-1.638;2023-04-01T19:17:38;11.60;99.90
19610;DHT22;9952;47.122;-1.638;2023-04-01T19:27:41;11.40;99.90
19610;DHT22;9952;47.122;-1.638;2023-04-01T19:32:57;11.30;99.90
19610;DHT22;9952;47.122;-1.638;2023-04-01T19:37:50;11.30;99.90
19610;DHT22;9952;47.122;-1.638;2023-04-01T19:42:51;11.30;99.90
19610;DHT22;9952;47.122;-1.638;2023-04-01T19:48:16;11.20;99.90
19610;DHT22;9952;47.122;-1.638;2023-04-01T19:53:18;11.20;99.90
19610;DHT22;9952;47.122;-1.638;2023-04-01T20:13:04;11.00;99.90
19610;DHT22;9952;47.122;-1.638;2023-04-01T20:17:48;11.00;99.90
19610;DHT22;9952;47.122;-1.638;2023-04-01T20:22:49;10.90;99.90
19610;DHT22;9952;47.122;-1.638;2023-04-01T20:27:38;10.80;99.90
19610;DHT22;9952;47.122;-1.638;2023-04-01T20:37:49;10.70;99.90
19610;DHT22;9952;47.122;-1.638;2023-04-01T20:43:27;10.70;99.90
19610;DHT22;9952;47.122;-1.638;2023-04-01T20:48:23;10.70;99.90
19610;DHT22;9952;47.122;-1.638;2023-04-01T20:58:43;10.60;99.90
19610;DHT22;9952;47.122;-1.638;2023-04-01T21:13:51;10.40;99.90
19610;DHT22;9952;47.122;-1.638;2023-04-01T21:23:38;10.20;99.90
19610;DHT22;9952;47.122;-1.638;2023-04-01T21:33:40;10.20;99.90
19610;DHT22;9952;47.122;-1.638;2023-04-01T22:08:38;10.30;99.90
19610;DHT22;9952;47.122;-1.638;2023-04-01T22:13:29;10.30;99.90
19610;DHT22;9952;47.122;-1.638;2023-04-01T22:18:34;10.30;99.90
19610;DHT22;9952;47.122;-1.638;2023-04-01T22:23:26;10.30;99.90
19610;DHT22;9952;47.122;-1.638;2023-04-01T22:28:15;10.30;99.90
19610;DHT22;9952;47.122;-1.638;2023-04-01T22:38:02;10.30;99.90
19610;DHT22;9952;47.122;-1.638;2023-04-01T22:42:53;10.30;99.90
19610;DHT22;9952;47.122;-1.638;2023-04-01T22:52:47;10.40;99.90
19610;DHT22;9952;47.122;-1.638;2023-04-01T22:57:42;10.40;99.90
19610;DHT22;9952;47.122;-1.638;2023-04-01T23:02:30;10.40;99.90
19610;DHT22;9952;47.122;-1.638;2023-04-01T23:07:23;10.40;99.90
19610;DHT22;9952;47.122;-1.638;2023-04-01T23:12:11;10.40;99.90
19610;DHT22;9952;47.122;-1.638;2023-04-01T23:22:16;10.40;99.90
19610;DHT22;9952;47.122;-1.638;2023-04-01T23:27:28;10.50;99.90
19610;DHT22;9952;47.122;-1.638;2023-04-01T23:32:29;10.50;99.90
19610;DHT22;9952;47.122;-1.638;2023-04-01T23:37:11;10.60;99.90
19610;DHT22;9952;47.122;-1.638;2023-04-01T23:41:55;10.50;99.90
19610;DHT22;9952;47.122;-1.638;2023-04-01T23:46:39;10.50;99.90
19610;DHT22;9952;47.122;-1.638;2023-04-01T23:51:23;10.60;99.90
19610;DHT22;9952;47.122;-1.638;2023-04-01T23:56:05;10.60;99.90
